Time;durP1;ratioP1;P1;durP2;ratioP2;P2;SDS_P1;SDS_P2;PMS_P1;PMS_P2;Temp;Humidity;BMP_temperature;BMP_pressure;BME280_temperature;BME280_humidity;BME280_pressure;Samples;Min_cycle;Max_cycle;Signal;HPM_P1;HPM_P2
2022/08/20 06:59:24;;;;;;;7.70;7.10;;;19.40;99.90;;;;;;507528;27;20883;-89
2022/08/20 07:01:49;;;;;;;8.00;7.20;;;19.50;99.90;;;;;;4843177;29;21031;-87
2022/08/20 07:04:39;;;;;;;7.67;7.10;;;19.60;99.90;;;;;;4825742;29;20554;-94
2022/08/20 07:07:05;;;;;;;7.40;6.80;;;19.60;99.90;;;;;;4849751;29;20204;-93
2022/08/20 07:09:34;;;;;;;8.03;7.37;;;19.70;99.90;;;;;;4823180;29;21175;-94
2022/08/20 07:12:00;;;;;;;7.43;6.83;;;19.70;99.90;;;;;;4815402;29;20328;-95
2022/08/20 07:14:26;;;;;;;7.53;6.83;;;19.70;99.90;;;;;;4818896;29;20830;-92
2022/08/20 07:16:51;;;;;;;8.30;7.67;;;19.70;99.90;;;;;;4821413;29;20510;-93
2022/08/20 07:19:19;;;;;;;7.37;6.67;;;19.80;99.90;;;;;;4847960;29;20194;-96
2022/08/20 07:21:50;;;;;;;18.73;17.13;;;19.70;99.90;;;;;;4831237;29;20567;-94
2022/08/20 07:24:17;;;;;;;8.77;8.17;;;19.70;99.90;;;;;;4831351;29;20446;-94
2022/08/20 07:27:01;;;;;;;8.30;7.63;;;19.80;99.90;;;;;;4833059;29;20504;-96
2022/08/20 07:32:33;;;;;;;7.87;7.07;;;19.90;99.90;;;;;;4854661;29;20474;-94
2022/08/20 07:34:59;;;;;;;7.53;6.93;;;20.10;99.90;;;;;;4844585;29;20457;-92
2022/08/20 07:37:53;;;;;;;6.27;5.87;;;20.10;99.90;;;;;;4859924;29;20440;-94
2022/08/20 07:40:22;;;;;;;7.47;6.87;;;20.10;99.90;;;;;;4832178;29;20489;-90
2022/08/20 07:42:49;;;;;;;7.27;6.67;;;20.20;99.90;;;;;;4831088;29;20451;-94
2022/08/20 07:45:17;;;;;;;7.43;6.80;;;20.30;99.90;;;;;;4837338;29;20744;-88
2022/08/20 07:48:20;;;;;;;7.53;6.93;;;20.20;99.90;;;;;;4817772;29;20483;-96
2022/08/20 07:50:49;;;;;;;8.10;7.07;;;20.30;99.90;;;;;;4821378;29;20501;-92
2022/08/20 07:53:15;;;;;;;42.17;38.77;;;20.90;99.90;;;;;;4846990;29;20443;-94
2022/08/20 07:55:41;;;;;;;20.47;18.73;;;20.50;99.90;;;;;;4835050;29;20446;-95
2022/08/20 07:58:10;;;;;;;7.80;7.10;;;20.60;99.90;;;;;;4856855;29;20443;-94
2022/08/20 08:00:37;;;;;;;9.97;6.77;;;20.70;99.90;;;;;;4813566;29;20601;-93
2022/08/20 08:03:03;;;;;;;6.83;6.20;;;20.80;99.90;;;;;;4843577;29;20472;-93
2022/08/20 08:05:38;;;;;;;7.07;6.47;;;20.80;99.90;;;;;;4819163;29;20459;-93
2022/08/20 08:08:11;;;;;;;6.93;6.40;;;20.90;99.90;;;;;;4817078;29;20442;-91
2022/08/20 08:10:39;;;;;;;8.43;7.73;;;21.00;99.90;;;;;;4823102;29;20455;-92
2022/08/20 08:13:07;;;;;;;7.13;6.63;;;21.10;99.90;;;;;;4807051;29;20453;-92
2022/08/20 08:15:38;;;;;;;7.93;6.50;;;21.20;99.90;;;;;;4839708;29;20482;-92
2022/08/20 08:18:17;;;;;;;6.70;6.20;;;21.50;99.90;;;;;;4823219;29;20460;-91
2022/08/20 08:20:43;;;;;;;7.10;6.60;;;21.50;99.90;;;;;;4810987;29;20577;-95
2022/08/20 08:23:11;;;;;;;6.53;6.13;;;21.40;99.90;;;;;;4823928;29;20455;-91
2022/08/20 08:25:46;;;;;;;5.93;5.37;;;21.60;99.90;;;;;;4810815;29;20978;-93
2022/08/20 08:28:15;;;;;;;7.03;6.33;;;21.50;99.90;;;;;;4845875;29;20473;-91
2022/08/20 08:30:42;;;;;;;6.30;5.70;;;21.60;99.90;;;;;;4810793;29;21791;-90
2022/08/20 08:33:28;;;;;;;6.00;5.60;;;21.90;99.90;;;;;;4819888;29;20456;-90
2022/08/20 08:35:55;;;;;;;6.13;5.73;;;21.90;99.90;;;;;;4809464;29;20462;-90
2022/08/20 08:38:37;;;;;;;5.97;5.53;;;22.00;99.90;;;;;;4822292;29;20451;-90
2022/08/20 08:41:20;;;;;;;5.77;5.37;;;22.10;99.90;;;;;;4837362;29;20489;-91
2022/08/20 08:43:48;;;;;;;23.13;8.00;;;22.10;99.90;;;;;;4842978;29;20527;-93
2022/08/20 08:46:26;;;;;;;4.97;4.47;;;22.20;99.90;;;;;;4832039;29;20440;-92
2022/08/20 08:48:55;;;;;;;5.53;5.13;;;22.20;99.90;;;;;;4818115;29;20935;-92
2022/08/20 08:51:31;;;;;;;5.10;4.53;;;22.30;99.90;;;;;;4814202;29;20454;-90
2022/08/20 08:54:01;;;;;;;5.17;4.67;;;22.20;99.90;;;;;;4846748;29;20470;-93
2022/08/20 08:56:29;;;;;;;4.53;4.23;;;22.50;99.90;;;;;;4823654;29;20520;-90
2022/08/20 08:59:03;;;;;;;5.07;4.50;;;22.40;99.90;;;;;;4822464;29;20443;-90
2022/08/20 09:01:32;;;;;;;5.53;5.13;;;22.30;99.90;;;;;;4807676;29;20483;-90
2022/08/20 09:04:01;;;;;;;5.10;4.70;;;22.30;99.90;;;;;;4818779;29;20450;-91
2022/08/20 09:06:27;;;;;;;5.50;5.10;;;22.30;99.90;;;;;;4810165;29;20459;-91
2022/08/20 09:08:57;;;;;;;5.47;5.07;;;22.40;99.90;;;;;;4838425;29;20502;-89
2022/08/20 09:11:24;;;;;;;5.40;5.00;;;22.40;99.90;;;;;;4820533;29;20202;-89
2022/08/20 09:14:03;;;;;;;4.63;4.33;;;22.40;99.90;;;;;;4844046;29;20470;-95
2022/08/20 09:16:32;;;;;;;5.23;4.73;;;22.70;99.90;;;;;;4841992;29;20478;-91
2022/08/20 09:18:58;;;;;;;5.07;4.43;;;23.20;99.90;;;;;;4828998;29;20443;-91
2022/08/20 09:21:33;;;;;;;4.20;3.90;;;23.70;99.90;;;;;;4814159;29;21096;-90
2022/08/20 09:24:03;;;;;;;4.20;3.90;;;24.00;99.90;;;;;;4806377;29;20486;-92
2022/08/20 09:26:29;;;;;;;4.50;4.20;;;24.20;99.90;;;;;;4799133;29;20939;-81
2022/08/20 09:29:04;;;;;;;4.13;3.83;;;24.60;99.90;;;;;;4822191;29;20447;-83
2022/08/20 09:31:29;;;;;;;6.03;4.20;;;24.40;99.90;;;;;;4844968;29;20583;-84
2022/08/20 09:33:55;;;;;;;4.80;4.50;;;24.50;99.90;;;;;;4807318;29;20778;-84
2022/08/20 09:36:45;;;;;;;5.10;4.70;;;24.30;99.90;;;;;;4810873;29;20213;-92
2022/08/20 09:39:11;;;;;;;7.57;5.23;;;24.00;99.90;;;;;;4827013;29;20194;-91
2022/08/20 09:41:37;;;;;;;7.87;5.10;;;23.60;99.90;;;;;;4814560;29;20539;-93
2022/08/20 09:44:02;;;;;;;5.13;4.63;;;23.20;99.90;;;;;;4816033;29;20856;-94
2022/08/20 09:46:31;;;;;;;5.90;5.50;;;23.20;99.90;;;;;;4812700;29;20201;-94
2022/08/20 09:48:56;;;;;;;4.93;4.63;;;23.40;99.90;;;;;;4813063;29;20209;-94
2022/08/20 09:51:22;;;;;;;5.30;4.93;;;23.30;99.90;;;;;;4822294;29;20446;-95
2022/08/20 09:53:48;;;;;;;4.10;3.80;;;23.40;99.90;;;;;;4848066;29;20255;-95
2022/08/20 09:56:14;;;;;;;4.40;4.00;;;22.90;99.90;;;;;;4816723;29;20194;-92
2022/08/20 09:58:48;;;;;;;5.03;4.50;;;22.70;99.90;;;;;;4802888;29;20779;-92
2022/08/20 10:01:15;;;;;;;9.30;5.10;;;22.00;99.90;;;;;;4823679;29;20700;-92
2022/08/20 10:03:42;;;;;;;6.50;4.77;;;21.20;99.90;;;;;;4821735;29;20568;-94
2022/08/20 10:06:09;;;;;;;7.33;4.97;;;20.60;99.90;;;;;;4813262;29;21937;-93
2022/08/20 10:08:35;;;;;;;10.40;5.00;;;20.20;99.90;;;;;;4812630;29;20531;-91
2022/08/20 10:11:01;;;;;;;6.03;5.43;;;19.80;99.90;;;;;;4816235;29;20453;-92
2022/08/20 10:13:26;;;;;;;5.90;5.30;;;19.40;99.90;;;;;;4832801;29;20194;-93
2022/08/20 10:15:52;;;;;;;9.03;6.13;;;19.40;99.90;;;;;;4811956;29;20198;-94
2022/08/20 10:18:17;;;;;;;6.10;5.47;;;19.20;99.90;;;;;;4816412;29;20960;-93
2022/08/20 10:20:43;;;;;;;2.93;2.73;;;19.20;99.90;;;;;;4808311;29;20608;-90
2022/08/20 10:23:09;;;;;;;3.50;3.27;;;19.10;99.90;;;;;;4816277;29;20635;-92
2022/08/20 10:25:35;;;;;;;3.50;3.20;;;19.10;99.90;;;;;;4814225;29;20190;-91
2022/08/20 10:28:02;;;;;;;3.90;3.60;;;19.10;99.90;;;;;;4824439;29;21811;-93
2022/08/20 10:30:27;;;;;;;6.10;3.63;;;19.10;99.90;;;;;;4811519;29;20828;-92
2022/08/20 11:02:58;;;;;;;4.80;4.37;;;19.00;99.90;;;;;;4795348;23;20541;-90
2022/08/20 11:05:24;;;;;;;4.17;3.80;;;18.90;99.90;;;;;;4781369;29;20612;-91
2022/08/20 11:07:49;;;;;;;5.33;4.07;;;19.00;99.90;;;;;;4779998;29;20455;-93
2022/08/20 11:10:15;;;;;;;4.50;4.10;;;18.90;99.90;;;;;;4781930;29;20658;-92
2022/08/20 11:12:42;;;;;;;5.30;4.90;;;18.90;99.90;;;;;;4793391;29;20230;-92
2022/08/20 11:15:08;;;;;;;4.37;4.07;;;18.90;99.90;;;;;;4788121;29;20199;-92
2022/08/20 11:17:35;;;;;;;2.93;2.70;;;19.00;99.90;;;;;;4781265;29;20448;-91
2022/08/20 11:20:05;;;;;;;3.30;3.07;;;18.90;99.90;;;;;;4777291;29;20529;-95
2022/08/20 11:23:00;;;;;;;2.73;2.57;;;19.00;99.90;;;;;;4801234;29;20499;-95
2022/08/20 11:25:26;;;;;;;2.20;2.10;;;19.10;99.90;;;;;;4779792;29;22140;-94
2022/08/20 11:27:53;;;;;;;2.50;1.73;;;19.30;99.90;;;;;;4787157;29;20673;-96
2022/08/20 11:30:24;;;;;;;2.17;2.07;;;19.40;99.90;;;;;;4804313;29;20445;-95
2022/08/20 11:32:50;;;;;;;2.33;2.13;;;19.50;99.90;;;;;;4798179;29;21124;-95
2022/08/20 11:35:16;;;;;;;2.30;2.10;;;19.50;99.90;;;;;;4782406;29;20452;-95
2022/08/20 11:37:42;;;;;;;4.40;2.00;;;19.60;99.90;;;;;;4791849;29;21609;-95
2022/08/20 11:40:10;;;;;;;2.30;2.10;;;19.60;99.90;;;;;;4786147;29;20485;-95
2022/08/20 11:42:36;;;;;;;2.70;2.57;;;19.70;99.90;;;;;;4786672;29;20200;-96
2022/08/20 11:45:03;;;;;;;3.20;3.00;;;19.70;99.90;;;;;;4787245;29;20461;-93
2022/08/20 11:47:36;;;;;;;3.90;3.50;;;19.50;99.90;;;;;;4779418;29;20499;-96
2022/08/20 11:50:35;;;;;;;4.40;4.10;;;19.30;99.90;;;;;;4798108;29;20487;-95
2022/08/20 11:53:02;;;;;;;5.97;4.13;;;19.10;99.90;;;;;;4781859;29;20561;-95
2022/08/20 11:55:28;;;;;;;5.40;5.00;;;19.00;99.90;;;;;;4780804;29;20492;-95
2022/08/20 11:58:19;;;;;;;5.33;4.83;;;19.00;99.90;;;;;;4805807;29;20502;-95
2022/08/20 12:00:44;;;;;;;5.77;4.70;;;19.10;99.90;;;;;;4801426;29;20575;-94
2022/08/20 12:03:11;;;;;;;4.67;4.37;;;19.10;99.90;;;;;;4789107;29;20475;-93
2022/08/20 12:05:42;;;;;;;4.87;4.50;;;19.30;99.90;;;;;;4814802;29;20239;-95
2022/08/20 12:08:36;;;;;;;4.33;4.03;;;19.60;99.90;;;;;;4822087;29;20468;-96
2022/08/20 12:11:15;;;;;;;4.97;4.50;;;19.90;99.90;;;;;;4823868;29;20432;-96
2022/08/20 12:13:53;;;;;;;4.23;3.93;;;20.30;99.90;;;;;;4822571;29;20960;-96
2022/08/20 12:16:19;;;;;;;4.13;3.83;;;20.60;99.90;;;;;;4802673;29;20456;-96
2022/08/20 12:18:48;;;;;;;6.93;4.13;;;20.40;99.90;;;;;;4804896;29;20456;-96
2022/08/20 12:21:36;;;;;;;4.73;4.43;;;20.40;99.90;;;;;;4823602;29;20515;-96
2022/08/20 12:24:08;;;;;;;5.00;4.60;;;20.30;99.90;;;;;;4814562;29;20456;-96
2022/08/20 12:26:34;;;;;;;4.50;4.20;;;20.20;99.90;;;;;;4814152;29;20484;-96
